Time;durP1;ratioP1;P1;durP2;ratioP2;P2;SDS_P1;SDS_P2;PMS_P1;PMS_P2;Temp;Humidity;BMP_temperature;BMP_pressure;BME280_temperature;BME280_humidity;BME280_pressure;Samples;Min_cycle;Max_cycle;Signal;HPM_P1;HPM_P2
2023/05/18 00:02:04;;;;;;;12.85;5.55;;;5.70;99.90;;;;;;5076675;28;20036;-60
2023/05/18 00:04:32;;;;;;;7.75;4.50;;;5.70;99.90;;;;;;5061851;28;20032;-60
2023/05/18 00:07:02;;;;;;;8.10;4.40;;;5.70;99.90;;;;;;5076584;28;20036;-59
2023/05/18 00:09:34;;;;;;;11.27;4.50;;;5.70;99.90;;;;;;5077613;28;20034;-59
2023/05/18 00:12:01;;;;;;;7.80;3.92;;;5.70;99.90;;;;;;5075660;28;20024;-59
2023/05/18 00:14:27;;;;;;;14.48;4.22;;;5.70;99.90;;;;;;5077865;28;20093;-59
2023/05/18 00:16:54;;;;;;;17.15;5.10;;;5.70;99.90;;;;;;5077231;28;20016;-61
2023/05/18 00:19:21;;;;;;;7.85;4.13;;;5.70;99.90;;;;;;5075680;28;20017;-60
2023/05/18 00:21:47;;;;;;;7.60;4.15;;;5.70;99.90;;;;;;5076192;28;20033;-58
2023/05/18 00:24:13;;;;;;;5.75;4.10;;;5.70;99.90;;;;;;5075558;28;20039;-60
2023/05/18 00:26:40;;;;;;;5.53;4.55;;;5.80;99.90;;;;;;5076785;28;20057;-59
2023/05/18 00:29:07;;;;;;;8.88;4.45;;;5.80;99.90;;;;;;5076100;28;20052;-60
2023/05/18 00:31:35;;;;;;;11.55;4.45;;;5.70;99.90;;;;;;5077328;28;20040;-60
2023/05/18 00:34:12;;;;;;;5.20;3.78;;;5.70;99.90;;;;;;5074210;28;20040;-58
2023/05/18 00:36:38;;;;;;;8.55;4.53;;;5.80;99.90;;;;;;5077033;28;20028;-58
2023/05/18 00:39:05;;;;;;;9.85;3.83;;;5.80;99.90;;;;;;5077354;28;20788;-61
2023/05/18 00:41:31;;;;;;;11.63;3.40;;;5.80;99.90;;;;;;5073789;28;20043;-58
2023/05/18 00:43:57;;;;;;;6.68;3.22;;;5.80;99.90;;;;;;5076192;28;20036;-59
2023/05/18 00:46:24;;;;;;;10.55;4.35;;;5.80;99.90;;;;;;5073161;28;20241;-59
2023/05/18 00:48:51;;;;;;;13.00;4.65;;;5.70;99.90;;;;;;5076731;28;20032;-59
2023/05/18 00:51:24;;;;;;;6.60;3.47;;;5.70;99.90;;;;;;5074879;28;20059;-59
2023/05/18 00:53:51;;;;;;;6.28;3.80;;;5.60;99.90;;;;;;5074310;28;20028;-59
2023/05/18 00:56:18;;;;;;;11.27;4.38;;;5.60;99.90;;;;;;5077697;28;20028;-58
2023/05/18 00:58:44;;;;;;;7.88;3.78;;;5.50;99.90;;;;;;5073072;28;20036;-58
2023/05/18 01:01:10;;;;;;;6.22;3.90;;;5.40;99.90;;;;;;5074948;28;20802;-58
2023/05/18 01:03:37;;;;;;;8.43;4.43;;;5.30;99.90;;;;;;5077280;28;20035;-59
2023/05/18 01:06:07;;;;;;;7.38;4.57;;;5.30;99.90;;;;;;5072793;28;20539;-59
2023/05/18 01:08:34;;;;;;;9.15;3.17;;;5.20;99.90;;;;;;5077538;28;20036;-59
2023/05/18 01:11:15;;;;;;;9.77;4.05;;;5.20;99.90;;;;;;5074828;28;20481;-59
2023/05/18 01:13:53;;;;;;;11.15;4.13;;;5.10;99.90;;;;;;5076999;28;20028;-58
2023/05/18 01:16:25;;;;;;;4.90;3.70;;;5.10;99.90;;;;;;5075197;28;20594;-59
2023/05/18 01:19:01;;;;;;;9.55;4.38;;;5.10;99.90;;;;;;5075475;28;20028;-58
2023/05/18 01:21:56;;;;;;;4.82;3.88;;;5.00;99.90;;;;;;5073123;28;20036;-57
2023/05/18 01:24:56;;;;;;;5.35;3.65;;;4.90;99.90;;;;;;5076494;28;20082;-59
2023/05/18 01:27:24;;;;;;;6.20;4.18;;;4.80;99.90;;;;;;5071139;28;20074;-58
2023/05/18 01:29:54;;;;;;;7.55;4.00;;;4.70;99.90;;;;;;5075336;28;20020;-58
2023/05/18 01:32:21;;;;;;;8.30;4.00;;;4.70;99.90;;;;;;5077218;28;20106;-58
2023/05/18 01:34:48;;;;;;;5.80;3.90;;;4.70;99.90;;;;;;5073542;28;20044;-58
2023/05/18 01:37:13;;;;;;;15.68;4.05;;;4.60;99.90;;;;;;5076140;28;20016;-60
2023/05/18 01:39:40;;;;;;;11.70;3.97;;;4.60;99.90;;;;;;5074888;28;20090;-58
2023/05/18 01:42:16;;;;;;;10.15;4.00;;;4.60;99.90;;;;;;5076865;28;20033;-59
2023/05/18 01:44:49;;;;;;;12.73;4.53;;;4.60;99.90;;;;;;5075273;28;20111;-59
2023/05/18 01:47:16;;;;;;;14.23;4.45;;;4.70;99.90;;;;;;5072911;28;20037;-58
2023/05/18 01:50:14;;;;;;;7.05;4.05;;;4.60;99.90;;;;;;5074066;28;20012;-60
2023/05/18 01:52:53;;;;;;;5.93;4.30;;;4.60;99.90;;;;;;5059852;28;20696;-59
2023/05/18 01:55:19;;;;;;;10.20;4.45;;;4.70;99.90;;;;;;5077448;28;20068;-59
2023/05/18 01:57:47;;;;;;;5.45;3.65;;;4.70;99.90;;;;;;5073193;28;20032;-58
2023/05/18 02:00:16;;;;;;;6.10;4.03;;;4.70;99.90;;;;;;5076739;28;20029;-60
2023/05/18 02:02:42;;;;;;;9.85;4.10;;;4.70;99.90;;;;;;5079383;28;20407;-58
2023/05/18 02:05:11;;;;;;;8.25;3.40;;;4.80;99.90;;;;;;5076622;28;20065;-59
2023/05/18 02:07:38;;;;;;;8.00;3.47;;;4.80;99.90;;;;;;5078583;28;20024;-58
2023/05/18 02:10:05;;;;;;;13.30;4.05;;;4.80;99.90;;;;;;5078017;28;20103;-59
2023/05/18 02:12:30;;;;;;;8.05;3.50;;;4.80;99.90;;;;;;5079697;28;20035;-59
2023/05/18 02:14:57;;;;;;;6.75;3.63;;;4.80;99.90;;;;;;5079716;28;20033;-60
2023/05/18 02:17:24;;;;;;;12.75;3.70;;;4.80;99.90;;;;;;5076735;28;20031;-60
2023/05/18 02:19:50;;;;;;;6.47;3.50;;;4.80;99.90;;;;;;5078558;28;20431;-58
2023/05/18 02:22:16;;;;;;;11.05;4.75;;;4.70;99.90;;;;;;5075876;28;20028;-58
2023/05/18 02:24:42;;;;;;;10.05;4.00;;;4.70;99.90;;;;;;5075657;28;20483;-58
2023/05/18 02:27:07;;;;;;;12.93;4.55;;;4.70;99.90;;;;;;5079471;28;20043;-59
2023/05/18 02:29:33;;;;;;;10.65;4.35;;;4.60;99.90;;;;;;5077189;28;20033;-59
2023/05/18 02:31:58;;;;;;;8.20;4.05;;;4.60;99.90;;;;;;5078097;28;20024;-58
2023/05/18 02:34:26;;;;;;;6.22;4.03;;;4.50;99.90;;;;;;5079433;28;20080;-59
2023/05/18 02:36:52;;;;;;;8.32;3.70;;;4.50;99.90;;;;;;5077453;28;20941;-59
2023/05/18 02:39:18;;;;;;;9.07;4.28;;;4.50;99.90;;;;;;5075214;28;20024;-59
2023/05/18 02:41:43;;;;;;;7.35;3.78;;;4.50;99.90;;;;;;5079705;28;20396;-59
2023/05/18 02:44:11;;;;;;;6.45;4.35;;;4.50;99.90;;;;;;5077826;28;20123;-59
2023/05/18 02:46:36;;;;;;;8.95;4.35;;;4.40;99.90;;;;;;5076795;28;20040;-59
2023/05/18 02:49:02;;;;;;;12.43;4.00;;;4.50;99.90;;;;;;5077024;28;20008;-60
2023/05/18 02:51:29;;;;;;;14.27;4.78;;;4.50;99.90;;;;;;5076958;28;20034;-59
2023/05/18 02:53:54;;;;;;;13.40;5.40;;;4.50;99.90;;;;;;5079147;28;20400;-58
2023/05/18 02:56:20;;;;;;;5.55;4.28;;;4.50;99.90;;;;;;5076675;28;20128;-57
2023/05/18 02:58:46;;;;;;;9.55;3.95;;;4.50;99.90;;;;;;5079068;28;20419;-58
2023/05/18 03:01:11;;;;;;;8.50;4.28;;;4.50;99.90;;;;;;5076927;28;20958;-59
2023/05/18 03:03:38;;;;;;;5.05;3.63;;;4.50;99.90;;;;;;5075543;28;20527;-58
2023/05/18 03:06:07;;;;;;;12.18;4.85;;;4.50;99.90;;;;;;5078949;28;20024;-58
2023/05/18 03:08:35;;;;;;;8.15;3.40;;;4.50;99.90;;;;;;5077968;28;20043;-57
2023/05/18 03:11:01;;;;;;;6.13;3.58;;;4.50;99.90;;;;;;5077830;28;20112;-58
2023/05/18 03:13:27;;;;;;;10.23;4.93;;;4.50;99.90;;;;;;5075756;28;20099;-59
2023/05/18 03:15:55;;;;;;;9.07;3.80;;;4.50;99.90;;;;;;5076651;28;20646;-59
2023/05/18 03:18:21;;;;;;;8.13;4.60;;;4.40;99.90;;;;;;5075918;28;20103;-58
2023/05/18 03:20:46;;;;;;;9.95;3.65;;;4.50;99.90;;;;;;5080112;28;20178;-58
2023/05/18 03:23:12;;;;;;;7.95;5.43;;;4.50;99.90;;;;;;5077678;28;20044;-58
2023/05/18 03:25:38;;;;;;;6.10;3.42;;;4.50;99.90;;;;;;5079437;28;20020;-58
2023/05/18 03:28:04;;;;;;;7.10;3.13;;;4.50;99.90;;;;;;5079157;28;20161;-59
2023/05/18 03:30:34;;;;;;;7.57;4.10;;;4.50;99.90;;;;;;5076718;28;20035;-58
2023/05/18 03:33:03;;;;;;;9.32;3.92;;;4.50;99.90;;;;;;5077106;28;20032;-60
2023/05/18 03:35:29;;;;;;;7.75;4.22;;;4.50;99.90;;;;;;5079115;28;20058;-59
2023/05/18 03:37:55;;;;;;;8.93;3.60;;;4.60;99.90;;;;;;5077767;28;20112;-58
2023/05/18 03:40:21;;;;;;;5.35;3.80;;;4.50;99.90;;;;;;5074943;28;20034;-59
2023/05/18 03:42:46;;;;;;;10.18;4.25;;;4.50;99.90;;;;;;5076620;28;20565;-59
2023/05/18 03:45:12;;;;;;;6.40;4.25;;;4.50;99.90;;;;;;5076828;28;20024;-59
2023/05/18 03:47:38;;;;;;;8.98;4.70;;;4.50;99.90;;;;;;5077692;28;20027;-58
2023/05/18 03:50:05;;;;;;;9.07;3.95;;;4.50;99.90;;;;;;5077498;28;20024;-59
2023/05/18 03:52:32;;;;;;;6.03;3.72;;;4.50;99.90;;;;;;5075415;28;20511;-58
2023/05/18 03:55:00;;;;;;;9.20;3.53;;;4.40;99.90;;;;;;5078046;28;20043;-58
2023/05/18 03:57:25;;;;;;;6.00;3.67;;;4.40;99.90;;;;;;5077109;28;20393;-59
2023/05/18 03:59:51;;;;;;;5.88;4.30;;;4.50;99.90;;;;;;5078450;28;20040;-59
2023/05/18 04:02:17;;;;;;;8.55;4.10;;;4.50;99.90;;;;;;5074713;28;20439;-59
2023/05/18 04:04:44;;;;;;;5.63;3.53;;;4.50;99.90;;;;;;5075309;28;20514;-58
2023/05/18 04:07:11;;;;;;;13.45;3.50;;;4.60;99.90;;;;;;5061828;28;20021;-59
2023/05/18 04:09:38;;;;;;;7.85;3.72;;;4.60;99.90;;;;;;5079209;28;20044;-57
2023/05/18 04:12:04;;;;;;;5.85;2.95;;;4.60;99.90;;;;;;5076551;28;20029;-58
2023/05/18 04:14:31;;;;;;;14.00;3.47;;;4.70;99.90;;;;;;5045096;28;20105;-59
2023/05/18 04:17:03;;;;;;;11.70;3.63;;;4.70;99.90;;;;;;5075650;28;20021;-59
2023/05/18 04:19:33;;;;;;;8.32;3.70;;;4.70;99.90;;;;;;5076640;28;20104;-59
2023/05/18 04:21:59;;;;;;;9.80;3.42;;;4.80;99.90;;;;;;5076075;28;20127;-60
2023/05/18 04:24:28;;;;;;;8.88;3.60;;;4.90;99.90;;;;;;5074550;28;20120;-59
2023/05/18 04:26:53;;;;;;;7.93;3.85;;;5.10;99.90;;;;;;5075437;28;20477;-59
2023/05/18 04:29:20;;;;;;;9.88;4.05;;;5.20;99.90;;;;;;5075454;28;20043;-59
2023/05/18 04:31:48;;;;;;;7.53;3.80;;;5.40;99.90;;;;;;5075899;28;20028;-59
2023/05/18 04:34:16;;;;;;;7.53;3.53;;;5.50;99.90;;;;;;5076207;28;20167;-60
2023/05/18 04:36:43;;;;;;;8.55;3.78;;;5.70;99.90;;;;;;5076017;28;20056;-59
2023/05/18 04:39:09;;;;;;;9.90;4.00;;;5.80;99.90;;;;;;5077991;28;20646;-59
2023/05/18 04:41:36;;;;;;;7.57;3.15;;;5.90;99.90;;;;;;5075973;28;20060;-60
2023/05/18 04:44:02;;;;;;;10.77;3.60;;;6.10;99.90;;;;;;5075005;28;20024;-60
2023/05/18 04:46:28;;;;;;;8.40;3.72;;;6.20;99.90;;;;;;5076594;28;20120;-59
2023/05/18 04:48:56;;;;;;;10.27;3.90;;;6.30;99.90;;;;;;5075819;28;20029;-59
2023/05/18 04:51:23;;;;;;;8.23;3.92;;;6.30;99.90;;;;;;5075713;28;20028;-59
2023/05/18 04:53:52;;;;;;;8.15;3.20;;;6.40;99.90;;;;;;5074092;28;20630;-59
2023/05/18 04:56:21;;;;;;;7.18;3.10;;;6.40;99.90;;;;;;5078419;28;20078;-58
2023/05/18 04:58:47;;;;;;;6.97;3.17;;;6.40;99.90;;;;;;5081108;28;20023;-60
2023/05/18 05:01:14;;;;;;;11.18;3.13;;;6.50;99.90;;;;;;5074490;28;20107;-59
2023/05/18 05:03:43;;;;;;;9.43;3.47;;;6.50;99.90;;;;;;5078063;28;20074;-59
2023/05/18 05:06:09;;;;;;;8.90;3.53;;;6.60;99.90;;;;;;5072963;28;20021;-59
2023/05/18 05:08:36;;;;;;;10.82;4.18;;;6.60;99.90;;;;;;5076930;28;20575;-59
2023/05/18 05:11:02;;;;;;;10.35;3.65;;;6.70;99.90;;;;;;5077650;28;20021;-59
2023/05/18 05:13:28;;;;;;;12.68;4.07;;;6.70;99.90;;;;;;5076629;28;20024;-58
2023/05/18 05:15:54;;;;;;;10.63;3.67;;;6.80;99.90;;;;;;5077222;28;20086;-58
2023/05/18 05:18:20;;;;;;;10.45;3.58;;;6.90;99.90;;;;;;5076089;28;20103;-59
2023/05/18 05:20:45;;;;;;;4.97;2.95;;;6.90;99.90;;;;;;5075267;28;20059;-58
2023/05/18 05:23:11;;;;;;;11.75;2.90;;;7.00;99.90;;;;;;5076249;28;20047;-59
2023/05/18 05:25:37;;;;;;;9.73;3.38;;;7.00;99.90;;;;;;5075174;28;20067;-60
2023/05/18 05:28:03;;;;;;;9.07;3.15;;;7.10;99.90;;;;;;5077086;28;20085;-60
2023/05/18 05:30:28;;;;;;;9.90;3.95;;;7.20;99.90;;;;;;5078970;28;20093;-59
2023/05/18 05:32:54;;;;;;;5.47;3.00;;;7.20;99.90;;;;;;5075027;28;20035;-59
2023/05/18 05:35:20;;;;;;;8.43;3.53;;;7.30;99.90;;;;;;5081673;28;20032;-58
2023/05/18 05:37:46;;;;;;;8.55;3.65;;;7.40;99.90;;;;;;5079735;28;20103;-60
2023/05/18 05:40:12;;;;;;;5.80;3.33;;;7.60;99.90;;;;;;5077401;28;20492;-59
2023/05/18 05:42:37;;;;;;;10.73;3.50;;;7.70;99.90;;;;;;5081967;28;20090;-58
2023/05/18 05:45:03;;;;;;;4.63;2.75;;;7.80;99.90;;;;;;5080076;28;20035;-59
2023/05/18 05:47:29;;;;;;;6.78;2.92;;;7.90;99.90;;;;;;5081995;28;20118;-58
2023/05/18 05:49:55;;;;;;;7.80;2.65;;;8.00;99.90;;;;;;5083171;28;20043;-59
2023/05/18 05:52:20;;;;;;;6.15;3.40;;;8.10;99.90;;;;;;5082492;28;20021;-58
2023/05/18 05:54:46;;;;;;;9.93;3.40;;;8.10;99.90;;;;;;5079366;28;20039;-59
2023/05/18 05:57:12;;;;;;;7.90;3.15;;;8.20;99.90;;;;;;5083197;28;20047;-59
2023/05/18 05:59:37;;;;;;;12.57;3.80;;;8.30;99.90;;;;;;5083441;28;20525;-60
2023/05/18 06:02:03;;;;;;;5.50;3.05;;;8.40;99.90;;;;;;5084031;28;20074;-58
2023/05/18 06:04:29;;;;;;;6.32;3.60;;;8.50;99.90;;;;;;5082718;28;20082;-59
2023/05/18 06:06:54;;;;;;;15.32;3.08;;;8.60;99.90;;;;;;5078900;28;20039;-59
2023/05/18 06:09:20;;;;;;;8.38;3.25;;;8.60;99.90;;;;;;5082408;28;20621;-59
2023/05/18 06:11:45;;;;;;;8.05;3.45;;;8.70;99.90;;;;;;5081574;28;20029;-58
2023/05/18 06:14:11;;;;;;;6.53;2.75;;;8.80;99.90;;;;;;5081917;28;20032;-58
2023/05/18 06:16:37;;;;;;;6.18;3.05;;;8.90;99.90;;;;;;5078509;28;20393;-59
2023/05/18 06:19:03;;;;;;;7.30;3.38;;;8.90;99.90;;;;;;5079617;28;20028;-59
2023/05/18 06:21:28;;;;;;;9.95;3.00;;;9.00;99.90;;;;;;5079337;28;20032;-58
2023/05/18 06:23:55;;;;;;;8.27;3.00;;;9.00;99.90;;;;;;5078563;28;20541;-58
2023/05/18 06:26:21;;;;;;;5.78;3.00;;;9.10;99.90;;;;;;5080548;28;20025;-58
2023/05/18 06:28:47;;;;;;;7.25;2.80;;;9.20;99.90;;;;;;5084691;28;20408;-59
2023/05/18 06:31:14;;;;;;;4.70;2.55;;;9.30;99.90;;;;;;5082538;28;20027;-59
2023/05/18 06:33:39;;;;;;;9.80;2.83;;;9.40;99.90;;;;;;5081629;28;20029;-60
2023/05/18 06:36:05;;;;;;;10.77;3.75;;;9.40;99.90;;;;;;5079747;28;20050;-58
2023/05/18 06:38:31;;;;;;;9.73;2.80;;;9.50;99.90;;;;;;5078343;28;20051;-59
2023/05/18 06:40:56;;;;;;;9.80;3.45;;;9.60;99.90;;;;;;5078488;28;20036;-58
2023/05/18 06:43:24;;;;;;;8.43;2.72;;;9.60;99.90;;;;;;5044766;28;20515;-59
2023/05/18 06:45:49;;;;;;;8.05;3.08;;;9.70;99.90;;;;;;5075822;28;20032;-58
2023/05/18 06:48:15;;;;;;;12.60;3.28;;;9.80;99.90;;;;;;5077964;28;20020;-59
2023/05/18 06:50:41;;;;;;;5.68;2.95;;;10.00;99.90;;;;;;5077959;28;20036;-59
2023/05/18 06:53:06;;;;;;;6.95;2.67;;;10.00;99.90;;;;;;5076862;28;20162;-58
2023/05/18 06:55:32;;;;;;;10.65;2.70;;;10.00;99.90;;;;;;5081369;28;20020;-60
2023/05/18 06:57:57;;;;;;;7.45;2.42;;;10.10;99.90;;;;;;5077447;28;20047;-60
2023/05/18 07:00:23;;;;;;;7.20;3.92;;;10.20;99.90;;;;;;5078051;28;20036;-58
2023/05/18 07:02:49;;;;;;;11.38;2.60;;;10.30;99.90;;;;;;5078147;28;20044;-59
2023/05/18 07:05:15;;;;;;;6.88;2.40;;;10.40;99.90;;;;;;5079401;28;20044;-58
2023/05/18 07:07:41;;;;;;;9.30;2.53;;;10.50;99.90;;;;;;5078526;28;20040;-57
2023/05/18 07:10:07;;;;;;;9.40;2.47;;;10.60;99.90;;;;;;5076473;28;20028;-58
2023/05/18 07:12:33;;;;;;;5.43;2.00;;;10.70;99.90;;;;;;5078713;28;20028;-59
2023/05/18 07:14:58;;;;;;;6.03;2.40;;;10.70;99.90;;;;;;5078033;28;20023;-59
2023/05/18 07:17:24;;;;;;;8.10;2.60;;;10.80;99.90;;;;;;5079634;28;20055;-58
2023/05/18 07:19:50;;;;;;;5.45;2.55;;;10.90;99.90;;;;;;5076438;28;20404;-59
2023/05/18 07:22:15;;;;;;;9.88;3.13;;;11.00;99.90;;;;;;5074243;28;20035;-58
2023/05/18 07:24:42;;;;;;;11.27;2.53;;;11.00;99.90;;;;;;5075610;28;20020;-57
2023/05/18 07:27:07;;;;;;;8.73;2.10;;;11.10;99.90;;;;;;5078759;28;20069;-59
2023/05/18 07:29:33;;;;;;;7.40;2.30;;;11.20;99.90;;;;;;5075122;28;20032;-59
2023/05/18 07:31:59;;;;;;;15.80;2.63;;;11.40;99.90;;;;;;5078369;28;20040;-59
2023/05/18 07:34:26;;;;;;;10.23;2.50;;;11.40;99.90;;;;;;5078544;28;20444;-58
2023/05/18 07:36:52;;;;;;;6.85;2.40;;;11.50;99.90;;;;;;5075887;28;20042;-58
2023/05/18 07:39:18;;;;;;;7.57;2.28;;;11.70;99.90;;;;;;5079431;28;20020;-60
2023/05/18 07:41:48;;;;;;;9.45;1.83;;;11.80;99.90;;;;;;5077972;28;20028;-60
2023/05/18 07:44:14;;;;;;;5.97;2.58;;;11.80;99.90;;;;;;5079310;28;20468;-59
2023/05/18 07:46:40;;;;;;;11.23;2.38;;;11.90;98.00;;;;;;5073815;28;20044;-58
2023/05/18 07:49:06;;;;;;;8.68;2.40;;;12.00;98.40;;;;;;5074855;28;20530;-59
2023/05/18 07:51:33;;;;;;;7.75;2.17;;;12.00;96.60;;;;;;5078105;28;20036;-60
2023/05/18 07:53:58;;;;;;;6.95;2.08;;;12.10;98.50;;;;;;5078685;28;20036;-60
2023/05/18 07:56:24;;;;;;;6.88;2.25;;;12.20;96.90;;;;;;5080007;28;20641;-58
2023/05/18 07:58:50;;;;;;;5.40;1.92;;;12.30;95.00;;;;;;5078990;28;20028;-59
2023/05/18 08:01:16;;;;;;;5.68;2.38;;;12.40;96.10;;;;;;5077566;28;20162;-58
2023/05/18 08:03:42;;;;;;;12.68;2.65;;;12.50;95.30;;;;;;5077704;28;20028;-58
2023/05/18 08:06:07;;;;;;;6.70;1.83;;;12.60;94.50;;;;;;5079439;28;20032;-60
2023/05/18 08:08:36;;;;;;;5.65;1.85;;;12.70;92.30;;;;;;5076434;28;20408;-58
2023/05/18 08:11:02;;;;;;;4.82;2.40;;;12.80;92.10;;;;;;5077823;28;20098;-58
2023/05/18 08:13:28;;;;;;;9.63;2.58;;;12.90;92.70;;;;;;5060314;28;20481;-58
2023/05/18 08:15:54;;;;;;;5.00;2.20;;;12.90;92.30;;;;;;5076524;28;20085;-59
2023/05/18 08:18:19;;;;;;;7.95;2.65;;;12.90;92.10;;;;;;5077651;28;20032;-59
2023/05/18 08:20:45;;;;;;;8.15;2.17;;;13.00;91.60;;;;;;5075986;28;20766;-59
2023/05/18 08:23:11;;;;;;;9.85;2.42;;;13.10;90.60;;;;;;5076684;28;20086;-58
2023/05/18 08:25:36;;;;;;;8.02;2.50;;;13.10;90.90;;;;;;5076368;28;20033;-59
2023/05/18 08:28:02;;;;;;;11.32;1.83;;;13.20;90.10;;;;;;5074478;28;20075;-59
2023/05/18 08:30:28;;;;;;;5.45;2.33;;;13.20;91.40;;;;;;5078645;28;20042;-58
2023/05/18 08:32:54;;;;;;;7.75;2.30;;;13.30;90.00;;;;;;5078146;28;20459;-58
2023/05/18 08:35:19;;;;;;;7.75;2.28;;;13.40;88.50;;;;;;5079330;28;20058;-57
2023/05/18 08:37:45;;;;;;;7.03;2.90;;;13.40;86.00;;;;;;5078224;28;20035;-58
2023/05/18 08:40:11;;;;;;;7.47;2.15;;;13.40;87.30;;;;;;5077297;28;20066;-58
2023/05/18 08:43:00;;;;;;;6.22;1.98;;;13.40;85.90;;;;;;5080298;28;20533;-58
2023/05/18 08:46:01;;;;;;;5.93;2.22;;;13.50;85.50;;;;;;5077872;28;20032;-60
2023/05/18 08:48:30;;;;;;;9.48;2.08;;;13.60;85.00;;;;;;5074321;28;20024;-60
2023/05/18 08:50:57;;;;;;;9.70;2.05;;;13.80;87.90;;;;;;5075936;28;20029;-59
2023/05/18 08:53:24;;;;;;;7.93;2.35;;;14.00;81.40;;;;;;5074542;28;20021;-59
2023/05/18 08:55:52;;;;;;;7.35;1.92;;;14.30;84.60;;;;;;5078449;28;20028;-58
2023/05/18 08:58:20;;;;;;;4.93;1.75;;;14.60;79.60;;;;;;5077691;28;20020;-59
2023/05/18 09:00:46;;;;;;;5.88;1.80;;;14.90;76.70;;;;;;5077148;28;20032;-60
2023/05/18 09:03:13;;;;;;;6.95;1.98;;;15.00;75.60;;;;;;5077297;28;20047;-58
2023/05/18 09:05:40;;;;;;;9.57;2.38;;;15.10;77.40;;;;;;5075539;28;20451;-59
2023/05/18 09:08:08;;;;;;;4.47;2.03;;;15.10;75.90;;;;;;5076134;28;20025;-58
2023/05/18 09:10:34;;;;;;;5.50;2.00;;;15.30;75.10;;;;;;5074242;28;20028;-60
2023/05/18 09:13:04;;;;;;;5.47;2.15;;;15.30;74.00;;;;;;5075373;28;20441;-59
2023/05/18 09:15:29;;;;;;;3.75;1.83;;;15.40;74.60;;;;;;5079447;28;20093;-59
2023/05/18 09:17:55;;;;;;;5.18;2.20;;;15.70;73.70;;;;;;5077363;28;20028;-60
2023/05/18 09:20:21;;;;;;;7.15;2.40;;;15.80;68.80;;;;;;5076105;28;20029;-59
2023/05/18 09:22:50;;;;;;;11.38;2.75;;;15.80;69.40;;;;;;5077102;28;20075;-60
2023/05/18 09:25:17;;;;;;;6.82;2.33;;;15.80;68.90;;;;;;5074429;28;20426;-61
2023/05/18 09:27:43;;;;;;;5.57;1.95;;;15.80;71.10;;;;;;5076251;28;20047;-60
2023/05/18 09:30:11;;;;;;;3.22;1.70;;;15.70;72.00;;;;;;5077336;28;20028;-60
2023/05/18 09:32:37;;;;;;;6.85;2.63;;;15.70;71.10;;;;;;5076222;28;20492;-59
2023/05/18 09:35:05;;;;;;;4.82;2.25;;;15.80;70.10;;;;;;5077288;28;20032;-59
2023/05/18 09:37:31;;;;;;;11.00;2.67;;;15.80;71.00;;;;;;5077992;28;20023;-59
2023/05/18 09:40:03;;;;;;;13.55;2.60;;;16.00;70.20;;;;;;5075829;28;20033;-60
2023/05/18 09:42:43;;;;;;;7.22;2.20;;;16.10;68.20;;;;;;5078807;28;20097;-60
2023/05/18 09:45:18;;;;;;;5.18;1.83;;;16.00;65.30;;;;;;5077748;28;20105;-59
2023/05/18 09:47:44;;;;;;;6.00;2.58;;;15.80;67.70;;;;;;5075252;28;20051;-59
2023/05/18 09:50:10;;;;;;;11.57;2.97;;;15.60;66.70;;;;;;5074933;28;20029;-60
2023/05/18 09:52:46;;;;;;;6.68;2.67;;;15.40;66.70;;;;;;5074828;28;20047;-59
2023/05/18 09:55:14;;;;;;;8.52;3.42;;;15.20;69.60;;;;;;5078398;28;20020;-60
2023/05/18 09:57:44;;;;;;;7.97;3.70;;;15.00;70.40;;;;;;5076216;28;20036;-59
2023/05/18 10:00:12;;;;;;;7.60;2.30;;;15.00;68.20;;;;;;5074694;28;20036;-60
2023/05/18 10:02:46;;;;;;;3.88;1.70;;;15.10;71.10;;;;;;5076444;28;20078;-60
2023/05/18 10:05:22;;;;;;;7.70;2.42;;;15.30;72.90;;;;;;5074955;28;20040;-60
2023/05/18 10:07:49;;;;;;;8.68;2.47;;;15.50;73.20;;;;;;5078281;28;20485;-60
2023/05/18 10:10:28;;;;;;;5.93;2.00;;;15.70;69.20;;;;;;5080362;28;20825;-59
2023/05/18 10:12:56;;;;;;;12.55;2.10;;;15.80;70.00;;;;;;5072934;28;20028;-59
2023/05/18 10:15:22;;;;;;;5.40;1.60;;;15.80;70.50;;;;;;5074343;28;20481;-60
2023/05/18 10:17:50;;;;;;;6.65;1.92;;;15.90;71.10;;;;;;5076169;28;20032;-58
2023/05/18 10:20:22;;;;;;;6.35;1.92;;;16.10;66.50;;;;;;5049699;28;20086;-59
2023/05/18 10:22:49;;;;;;;3.95;1.70;;;16.00;66.10;;;;;;5079903;28;20085;-59
2023/05/18 10:25:19;;;;;;;5.60;2.05;;;16.00;66.60;;;;;;5078587;28;20032;-59
2023/05/18 10:27:48;;;;;;;7.03;2.33;;;15.90;67.90;;;;;;5077054;28;20064;-59
2023/05/18 10:30:14;;;;;;;5.82;2.05;;;16.00;65.30;;;;;;5077965;28;20036;-60
2023/05/18 10:32:42;;;;;;;5.72;2.30;;;16.20;66.90;;;;;;5076893;28;20047;-60
2023/05/18 10:35:09;;;;;;;7.45;2.08;;;16.30;69.50;;;;;;5081062;28;20071;-60
2023/05/18 10:37:40;;;;;;;9.30;2.28;;;16.40;68.10;;;;;;5075862;28;20568;-59
2023/05/18 10:40:08;;;;;;;5.85;2.00;;;16.60;68.90;;;;;;5078652;28;20429;-59
2023/05/18 10:42:34;;;;;;;5.25;1.75;;;16.80;67.60;;;;;;5060459;28;20500;-59
2023/05/18 10:45:01;;;;;;;6.18;2.13;;;17.10;64.50;;;;;;5078039;28;20528;-61
2023/05/18 10:47:27;;;;;;;8.30;2.25;;;17.20;63.80;;;;;;5077564;28;20037;-59
2023/05/18 10:49:54;;;;;;;4.63;1.80;;;17.10;68.00;;;;;;5077738;28;20388;-58
2023/05/18 10:52:20;;;;;;;9.07;2.10;;;17.00;64.30;;;;;;5077781;28;20033;-59
2023/05/18 10:54:47;;;;;;;3.65;1.75;;;17.00;64.80;;;;;;5077073;28;20035;-60
2023/05/18 10:57:17;;;;;;;4.05;1.88;;;17.00;66.60;;;;;;5078735;28;20040;-59
2023/05/18 10:59:43;;;;;;;6.47;2.47;;;16.90;62.00;;;;;;5078490;28;20040;-59
2023/05/18 11:02:15;;;;;;;7.50;2.22;;;16.70;62.50;;;;;;5077320;28;20135;-60
2023/05/18 11:04:41;;;;;;;6.65;2.10;;;16.80;62.80;;;;;;5074972;28;20051;-59
2023/05/18 11:07:12;;;;;;;3.72;1.70;;;16.80;66.00;;;;;;5079339;28;20052;-59
2023/05/18 11:09:41;;;;;;;;;;;16.80;65.70;;;;;;5078723;28;20066;-60
2023/05/18 11:12:12;;;;;;;5.93;1.83;;;17.10;65.90;;;;;;5078980;28;19923;-60
2023/05/18 11:14:50;;;;;;;4.85;1.75;;;17.40;62.90;;;;;;5078446;28;20035;-60
2023/05/18 11:17:18;;;;;;;6.32;1.50;;;17.70;62.50;;;;;;5081347;28;20043;-60
2023/05/18 11:20:11;;;;;;;6.43;1.60;;;17.90;64.60;;;;;;5076508;28;20086;-59
2023/05/18 11:22:47;;;;;;;3.28;1.63;;;18.10;65.50;;;;;;5076976;28;20036;-59
2023/05/18 11:25:33;;;;;;;7.03;1.98;;;18.40;62.10;;;;;;5078879;28;20421;-60
2023/05/18 11:28:06;;;;;;;5.10;1.73;;;18.50;61.70;;;;;;5067830;28;20040;-59
2023/05/18 11:30:32;;;;;;;7.57;1.50;;;18.40;58.20;;;;;;5079250;28;20040;-58
2023/05/18 11:33:30;;;;;;;7.43;1.90;;;18.10;58.90;;;;;;5077787;28;20032;-60
2023/05/18 11:36:10;;;;;;;5.03;1.45;;;17.90;60.20;;;;;;5037618;28;20064;-59
2023/05/18 11:39:01;;;;;;;4.07;1.58;;;18.00;59.30;;;;;;5077257;28;20031;-60
2023/05/18 11:41:28;;;;;;;;;;;17.80;62.20;;;;;;5078476;28;20505;-60
2023/05/18 11:44:08;;;;;;;6.05;1.45;;;17.40;59.30;;;;;;5077836;28;20362;-59
2023/05/18 11:46:35;;;;;;;4.50;1.77;;;17.30;62.20;;;;;;5080118;28;20016;-60
2023/05/18 11:49:07;;;;;;;4.20;1.70;;;17.30;63.50;;;;;;5079119;28;20055;-59
2023/05/18 11:51:33;;;;;;;6.07;1.50;;;17.30;61.30;;;;;;5059406;28;20468;-58
2023/05/18 11:53:59;;;;;;;6.47;1.70;;;17.40;63.10;;;;;;5079508;28;20060;-56
2023/05/18 11:56:26;;;;;;;8.55;2.08;;;17.60;63.80;;;;;;5076250;28;20497;-59
2023/05/18 11:59:30;;;;;;;6.18;1.42;;;18.10;65.30;;;;;;5076459;28;20037;-59
2023/05/18 12:01:59;;;;;;;4.43;1.63;;;18.60;58.90;;;;;;5034171;28;20040;-59
2023/05/18 12:04:26;;;;;;;4.22;1.70;;;18.80;60.00;;;;;;5076421;28;20021;-60
2023/05/18 12:06:53;;;;;;;10.77;2.15;;;18.90;57.80;;;;;;5078665;28;20066;-59
2023/05/18 12:09:19;;;;;;;5.68;1.85;;;18.70;59.90;;;;;;5077320;28;20043;-59
2023/05/18 12:11:45;;;;;;;4.72;1.58;;;18.40;60.00;;;;;;5079121;28;20058;-59
2023/05/18 12:14:11;;;;;;;5.25;1.90;;;18.20;59.10;;;;;;5075153;28;20111;-59
2023/05/18 12:16:39;;;;;;;4.82;1.58;;;18.00;61.00;;;;;;5076790;28;20025;-60
2023/05/18 12:19:07;;;;;;;6.60;1.63;;;18.00;60.80;;;;;;5074985;28;20017;-59
2023/05/18 12:21:36;;;;;;;5.22;1.98;;;17.90;59.90;;;;;;5076497;28;20024;-61
2023/05/18 12:24:02;;;;;;;3.85;1.92;;;17.90;59.60;;;;;;5076436;28;20111;-59
2023/05/18 12:26:29;;;;;;;5.28;1.92;;;18.10;59.20;;;;;;5077561;28;20071;-59
2023/05/18 12:28:55;;;;;;;5.85;1.60;;;18.10;58.60;;;;;;5074649;28;20029;-59
2023/05/18 12:31:22;;;;;;;5.82;1.85;;;18.00;60.20;;;;;;5074886;28;20020;-59
2023/05/18 12:33:48;;;;;;;4.20;1.85;;;17.80;63.40;;;;;;5075405;28;20703;-59
2023/05/18 12:36:14;;;;;;;4.97;1.65;;;17.80;64.30;;;;;;5075047;28;20028;-59
2023/05/18 12:38:40;;;;;;;5.18;1.48;;;17.80;62.70;;;;;;5077291;28;20087;-60
2023/05/18 12:41:06;;;;;;;4.25;1.58;;;17.90;63.50;;;;;;5080604;28;20016;-60
2023/05/18 12:43:35;;;;;;;6.35;1.27;;;18.20;62.30;;;;;;5077785;28;20059;-59
2023/05/18 12:46:04;;;;;;;4.80;1.48;;;18.40;60.10;;;;;;5074290;28;20040;-59
2023/05/18 12:48:43;;;;;;;4.97;1.35;;;18.60;61.30;;;;;;5073761;28;20043;-60
2023/05/18 12:51:19;;;;;;;9.23;1.77;;;18.90;60.60;;;;;;5065691;28;20026;-59
2023/05/18 12:53:45;;;;;;;6.55;2.08;;;19.00;59.10;;;;;;5077996;28;20033;-58
2023/05/18 12:56:11;;;;;;;10.23;2.08;;;19.00;61.10;;;;;;5079616;28;20442;-59